Mary Alice — WCX9570 — position and weather

sailwx.info

Track history (hours):
 
Tides and Currents Weather Stations Pressure Air Temp Water Temp Dewpoint Dewpoint Depression Visibility Wind Speed Wind Dir Waves Ship Positions

Mary Alice

Owner: Donjon Marine Co., Inc., HILLSIDE, NJ. More information available from US FCC via Universal Licensing System and Coast Guard Vessel Documentation Center.

Last reported at 2015-Jul-05 18:33 UTC. Time now 2015-Jul-05 19:20 UTC.
Position N 40°28' W 074°03'.

Length 21 m; draft 4.8 m.

Type: Towing. MMSI: 366744020.

Date/timePositionNaut miles runAvg speedWind from/ knotsBaromVisibWave heightAir tempDewpointWater temp
2015-Jul-05 18:33N 40°28' W 074°03'0 0.1
2015-Jul-05 17:32N 40°28' W 074°03'10 4.6
2015-Jul-05 15:26N 40°24' W 073°51'10 5.0
2015-Jul-05 13:31N 40°28' W 074°02'0 0.5
2015-Jul-05 12:33N 40°28' W 074°03'3 0.9
2015-Jul-05 09:29N 40°29' W 073°59'3 3.3
2015-Jul-05 08:29N 40°27' W 074°03'2 1.9
2015-Jul-05 07:31N 40°29' W 074°01'9 4.4
2015-Jul-05 05:26N 40°24' W 073°51'8 6.4
2015-Jul-05 04:08N 40°29' W 073°60'3 4.6
2015-Jul-05 03:28N 40°27' W 074°03'11 3.7
2015-Jul-05 00:30N 40°25' W 073°49'10 5.1
2015-Jul-04 22:33N 40°29' W 074°00'3 2.5
2015-Jul-04 21:31N 40°27' W 074°03'1 0.4
2015-Jul-04 19:23N 40°28' W 074°03'0 0.1
2015-Jul-04 15:33N 40°28' W 074°02'1 0.7
2015-Jul-04 14:28N 40°27' W 074°03'3 0.9
2015-Jul-04 11:05N 40°29' W 073°59'2 4.0
2015-Jul-04 10:33N 40°29' W 074°02'1 0.8
2015-Jul-04 09:30N 40°28' W 074°03'6 6.0
2015-Jul-04 08:33N 40°27' W 073°56'6 5.6
2015-Jul-04 07:31N 40°23' W 073°50'5 5.4
2015-Jul-04 06:33N 40°27' W 073°55'6 6.1
2015-Jul-04 05:33N 40°28' W 074°03'0 0.4
2015-Jul-04 04:33N 40°28' W 074°03'5 4.6
2015-Jul-04 03:33N 40°27' W 073°57'6 5.8
2015-Jul-04 02:33N 40°25' W 073°50'6 6.3
2015-Jul-04 01:33N 40°28' W 073°57'4 4.5
2015-Jul-04 00:33N 40°27' W 074°03'0 0.1
2015-Jul-03 23:32N 40°27' W 074°03'7 6.4
2015-Jul-03 22:25N 40°26' W 073°54'2 2.4
2015-Jul-03 21:33N 40°26' W 073°51'7 6.5
2015-Jul-03 20:32N 40°29' W 073°59'3 3.4
2015-Jul-03 19:33N 40°27' W 074°03'1 0.8
2015-Jul-03 18:33N 40°28' W 074°03'1 0.6
2015-Jul-03 17:33N 40°29' W 074°02'10 5.0
2015-Jul-03 15:33N 40°25' W 073°50'8 6.9
2015-Jul-03 14:20N 40°29' W 073°59'3 3.9
2015-Jul-03 13:29N 40°27' W 074°03'10 5.3
2015-Jul-03 11:30N 40°24' W 073°50'6 5.8
2015-Jul-03 10:33N 40°27' W 073°56'4 4.5
2015-Jul-03 09:33N 40°29' W 074°01'2 1.9
2015-Jul-03 08:33N 40°27' W 074°03'2 2.4
2015-Jul-03 07:33N 40°29' W 074°01'9 6.3
2015-Jul-03 06:04N 40°23' W 073°51'3 5.0
2015-Jul-03 05:33N 40°26' W 073°51'7 7.6
2015-Jul-03 04:33N 40°29' W 074°01'3 2.6
2015-Jul-03 03:32N 40°27' W 074°03'5 4.9
2015-Jul-03 02:33N 40°28' W 073°57'5 5.2
2015-Jul-03 01:30N 40°25' W 073°50'7 6.9
2015-Jul-03 00:33N 40°28' W 073°58'4 4.0
2015-Jul-02 23:33N 40°27' W 074°03'3 2.9
2015-Jul-02 22:33N 40°29' W 074°00'9 8.8
2015-Jul-02 21:31N 40°23' W 073°51'5 4.7
2015-Jul-02 20:33N 40°27' W 073°55'6 5.6
2015-Jul-02 19:33N 40°29' W 074°02'2 1.7
2015-Jul-02 18:33N 40°27' W 074°03'10 4.9
2015-Jul-02 16:33N 40°23' W 073°51'6 5.4
2015-Jul-02 15:23N 40°28' W 073°57'5 4.6
2015-Jul-02 14:23N 40°27' W 074°03'1 0.8
2015-Jul-02 13:24N 40°28' W 074°03'10 5.5
2015-Jul-02 11:33N 40°25' W 073°50'6 6.0
2015-Jul-02 10:33N 40°28' W 073°57'4 4.2
2015-Jul-02 09:33N 40°28' W 074°03'1 0.7
2015-Jul-02 08:29N 40°27' W 074°03'10 4.9
2015-Jul-02 06:27N 40°23' W 073°52'4 4.9
2015-Jul-02 05:33N 40°27' W 073°54'7 6.8
2015-Jul-02 04:31N 40°28' W 074°03'1 1.5
2015-Jul-02 03:31N 40°29' W 074°01'9 4.5
2015-Jul-02 01:33N 40°26' W 073°50'7 6.5
2015-Jul-02 00:26N 40°29' W 073°59'3 3.9
2015-Jul-01 23:33N 40°27' W 074°03'2 1.7
2015-Jul-01 22:26N 40°29' W 074°01'9 7.9
2015-Jul-01 21:19N 40°24' W 073°51'1 1.5
2015-Jul-01 20:33N 40°25' W 073°51'7 6.6
2015-Jul-01 19:27N 40°29' W 073°59'3 3.7
2015-Jul-01 18:33N 40°27' W 074°03'1 0.9
2015-Jul-01 17:33N 40°28' W 074°03'10 4.7
2015-Jul-01 15:30N 40°25' W 073°51'8 7.4
2015-Jul-01 14:28N 40°29' W 073°59'3 3.6
2015-Jul-01 13:33N 40°27' W 074°03'3 2.8
2015-Jul-01 12:29N 40°29' W 074°00'9 6.2
2015-Jul-01 11:04N 40°24' W 073°50'3 5.8
2015-Jul-01 10:32N 40°26' W 073°53'6 6.0
2015-Jul-01 09:33N 40°29' W 073°60'3 2.7
2015-Jul-01 08:27N 40°27' W 074°03'2 2.4
2015-Jul-01 07:30N 40°29' W 074°01'7 6.9
2015-Jul-01 06:32N 40°26' W 073°53'2 1.9
2015-Jul-01 05:26N 40°25' W 073°51'5 5.9
2015-Jul-01 04:33N 40°27' W 073°57'5 4.7
2015-Jul-01 03:33N 40°28' W 074°03'2 1.7
2015-Jul-01 02:33N 40°29' W 074°01'5 5.0
2015-Jul-01 01:33N 40°27' W 073°55'6 5.1
2015-Jul-01 00:28N 40°23' W 073°51'3 3.3
2015-Jun-30 23:31N 40°26' W 073°51'3 2.2
2015-Jun-30 22:17N 40°23' W 073°52'3 3.5
2015-Jun-30 21:30N 40°26' W 073°51'5 5.4
2015-Jun-30 20:32N 40°28' W 073°57'4 3.7
2015-Jun-30 19:33N 40°29' W 074°01'2 1.8
2015-Jun-30 18:33N 40°27' W 074°03'5 4.1
2015-Jun-30 17:25N 40°28' W 073°57'6 6.5
2015-Jun-30 16:33N 40°25' W 073°51'4 3.8
2015-Jun-30 15:33N 40°27' W 073°55'6 6.2
2015-Jun-30 14:33N 40°28' W 074°03'1 0.8
2015-Jun-30 13:33N 40°28' W 074°02'7 6.6
2015-Jun-30 12:33N 40°26' W 073°54'1 1.3
2015-Jun-30 11:33N 40°26' W 073°52'6 6.5
2015-Jun-30 10:33N 40°29' W 074°00'3 3.0
2015-Jun-30 09:33N 40°27' W 074°03'3 3.1
2015-Jun-30 08:33N 40°29' W 074°00'8 7.8
2015-Jun-30 07:33N 40°26' W 073°51'1 1.3
2015-Jun-30 06:33N 40°26' W 073°52'6 6.3
2015-Jun-30 05:33N 40°29' W 073°60'3 3.1
2015-Jun-30 04:33N 40°27' W 074°03'3 3.3
2015-Jun-30 03:33N 40°29' W 073°60'9 7.7
2015-Jun-30 02:26N 40°23' W 073°52'4 4.8
2015-Jun-30 01:33N 40°27' W 073°54'7 5.6
2015-Jun-30 00:23N 40°27' W 074°03'0 0.5
2015-Jun-29 23:32N 40°28' W 074°03'4 3.6
2015-Jun-29 22:29N 40°28' W 073°58'7 6.8
2015-Jun-29 21:25N 40°24' W 073°50'4 4.7
2015-Jun-29 20:32N 40°27' W 073°54'5 5.1
2015-Jun-29 19:33N 40°29' W 073°60'3 2.8
2015-Jun-29 18:33N 40°27' W 074°03'2 2.2
2015-Jun-29 17:32N 40°29' W 074°01'9 4.5
2015-Jun-29 15:33N 40°25' W 073°50'8 7.9
2015-Jun-29 14:33N 40°29' W 073°59'3 3.3
2015-Jun-29 13:33N 40°27' W 074°03'9 3.8
2015-Jun-29 11:05N 40°26' W 073°51'9 5.3
2015-Jun-29 09:20N 40°28' W 074°03'0 0.0
2015-Jun-29 08:33N 40°28' W 074°03'6 4.3
2015-Jun-29 07:12N 40°27' W 073°55'5 4.4
2015-Jun-29 06:09N 40°24' W 073°50'1 2.1
2015-Jun-29 05:33N 40°26' W 073°50'7 6.8
2015-Jun-29 04:31N 40°29' W 073°59'4 3.8
2015-Jun-29 03:32N 40°27' W 074°03'10 4.6
2015-Jun-29 01:18N 40°23' W 073°51'4 4.6
2015-Jun-29 00:32N 40°26' W 073°53'7 6.8
2015-Jun-28 23:33N 40°29' W 074°01'1 1.4
2015-Jun-28 22:32N 40°28' W 074°02'8 5.9
2015-Jun-28 21:14N 40°26' W 073°52'2 2.4
2015-Jun-28 20:26N 40°25' W 073°51'5 5.5
2015-Jun-28 19:33N 40°27' W 073°56'4 4.2
2015-Jun-28 18:33N 40°29' W 074°01'2 1.9
2015-Jun-28 17:33N 40°27' W 074°03'1 0.9
2015-Jun-28 16:33N 40°28' W 074°03'1 0.7
2015-Jun-28 15:32N 40°27' W 074°03'4 4.6
2015-Jun-28 14:33N 40°28' W 073°57'5 0.9
2015-Jun-28 09:20N 40°27' W 074°03'0 0.0
2015-Jun-28 08:28N 40°27' W 074°03'0 0.0
2015-Jun-28 07:24N 40°27' W 074°03'0 0.0
2015-Jun-28 04:09N 40°27' W 074°03'0 0.0
2015-Jun-28 03:33N 40°27' W 074°03'0 0.0
2015-Jun-28 02:32N 40°27' W 074°03'0 0.0
2015-Jun-28 01:30N 40°27' W 074°03'0 0.0
2015-Jun-28 00:23N 40°27' W 074°03'0 0.0
2015-Jun-27 23:31N 40°27' W 074°03'0 0.0
2015-Jun-27 22:33N 40°27' W 074°03'1 0.8
2015-Jun-27 21:32N 40°28' W 074°02'5 5.2
2015-Jun-27 20:31N 40°27' W 073°55'5 4.9
2015-Jun-27 19:33N 40°24' W 073°51'5 4.9
2015-Jun-27 18:32N 40°27' W 073°56'4 4.3
2015-Jun-27 17:31N 40°29' W 074°01'2 2.3
2015-Jun-27 16:33N 40°27' W 074°03'5 4.9
2015-Jun-27 15:33N 40°28' W 073°57'5 5.4
2015-Jun-27 14:33N 40°25' W 073°50'7 6.7
2015-Jun-27 13:33N 40°28' W 073°58'4 3.8
2015-Jun-27 12:32N 40°27' W 074°03'1 1.5
2015-Jun-27 11:33N 40°29' W 074°02'7 6.8
2015-Jun-27 10:33N 40°26' W 073°54'2 2.0
2015-Jun-27 09:33N 40°26' W 073°51'7 6.5
2015-Jun-27 08:32N 40°29' W 073°59'3 2.4
2015-Jun-27 07:07N 40°27' W 074°03'4 7.2
2015-Jun-27 06:32N 40°32' W 074°02'8 8.2
2015-Jun-27 05:33N 40°39' W 074°07'4 3.7
2015-Jun-27 04:33N 40°42' W 074°09'0 0.0
2015-Jun-27 03:33N 40°42' W 074°09'0 0.0
2015-Jun-27 02:31N 40°42' W 074°09'0 0.0
2015-Jun-27 01:33N 40°42' W 074°09'4 3.6
2015-Jun-27 00:33N 40°39' W 074°07'1 0.5
2015-Jun-26 23:33N 40°39' W 074°07'0 0.0
2015-Jun-26 22:33N 40°39' W 074°07'0 0.0
2015-Jun-26 21:33N 40°39' W 074°07'0 0.0
2015-Jun-26 20:33N 40°39' W 074°07'0 0.0
2015-Jun-26 19:33N 40°39' W 074°07'1 0.6
2015-Jun-26 18:33N 40°39' W 074°07'0 0.0
2015-Jun-26 17:33N 40°39' W 074°07'0 0.0
2015-Jun-26 16:31N 40°39' W 074°07'0 0.0
2015-Jun-26 15:31N 40°38' W 074°07'0 0.0
2015-Jun-26 14:33N 40°39' W 074°07'0 0.0
2015-Jun-26 13:33N 40°39' W 074°07'0 0.0
2015-Jun-26 12:32N 40°39' W 074°07'0 0.0
2015-Jun-26 11:33N 40°39' W 074°07'0 0.0
2015-Jun-26 10:33N 40°39' W 074°07'0 0.0
2015-Jun-26 09:33N 40°39' W 074°07'0 0.0
2015-Jun-26 08:32N 40°39' W 074°07'0 0.0
2015-Jun-26 07:22N 40°39' W 074°07'0 0.0
2015-Jun-26 06:28N 40°38' W 074°07'0 0.0
2015-Jun-26 05:32N 40°39' W 074°07'0 0.0
2015-Jun-26 04:31N 40°39' W 074°07'0 0.0
2015-Jun-26 03:33N 40°39' W 074°07'0 0.0
2015-Jun-26 02:26N 40°39' W 074°07'0 0.0
2015-Jun-26 01:28N 40°39' W 074°07'0 0.0
2015-Jun-26 00:33N 40°39' W 074°07'0 0.0
2015-Jun-25 23:33N 40°39' W 074°07'0 0.0
2015-Jun-25 22:32N 40°39' W 074°07'0 0.0
2015-Jun-25 21:33N 40°39' W 074°07'0 0.0
2015-Jun-25 20:33N 40°39' W 074°07'0 0.0
2015-Jun-25 19:32N 40°39' W 074°07'  
Track history (hours):
 
Tides and Currents Weather Stations Pressure Air Temp Water Temp Dewpoint Dewpoint Depression Visibility Wind Speed Wind Dir Waves Ship Positions

Mary Alice

Owner: Donjon Marine Co., Inc., HILLSIDE, NJ. More information available from US FCC via Universal Licensing System and Coast Guard Vessel Documentation Center.

Last reported at 2015-Jul-05 18:33 UTC. Time now 2015-Jul-05 19:20 UTC.
Position N 40°28' W 074°03'.

Length 21 m; draft 4.8 m.

Type: Towing. MMSI: 366744020.

Date/timePositionNaut miles runAvg speedWind from/ knotsBaromVisibWave heightAir tempDewpointWater temp
2015-Jul-05 18:33N 40°28' W 074°03'0 0.1
2015-Jul-05 17:32N 40°28' W 074°03'10 4.6
2015-Jul-05 15:26N 40°24' W 073°51'10 5.0
2015-Jul-05 13:31N 40°28' W 074°02'0 0.5
2015-Jul-05 12:33N 40°28' W 074°03'3 0.9
2015-Jul-05 09:29N 40°29' W 073°59'3 3.3
2015-Jul-05 08:29N 40°27' W 074°03'2 1.9
2015-Jul-05 07:31N 40°29' W 074°01'9 4.4
2015-Jul-05 05:26N 40°24' W 073°51'8 6.4
2015-Jul-05 04:08N 40°29' W 073°60'3 4.6
2015-Jul-05 03:28N 40°27' W 074°03'11 3.7
2015-Jul-05 00:30N 40°25' W 073°49'10 5.1
2015-Jul-04 22:33N 40°29' W 074°00'3 2.5
2015-Jul-04 21:31N 40°27' W 074°03'1 0.4
2015-Jul-04 19:23N 40°28' W 074°03'0 0.1
2015-Jul-04 15:33N 40°28' W 074°02'1 0.7
2015-Jul-04 14:28N 40°27' W 074°03'3 0.9
2015-Jul-04 11:05N 40°29' W 073°59'2 4.0
2015-Jul-04 10:33N 40°29' W 074°02'1 0.8
2015-Jul-04 09:30N 40°28' W 074°03'6 6.0
2015-Jul-04 08:33N 40°27' W 073°56'6 5.6
2015-Jul-04 07:31N 40°23' W 073°50'5 5.4
2015-Jul-04 06:33N 40°27' W 073°55'6 6.1
2015-Jul-04 05:33N 40°28' W 074°03'0 0.4
2015-Jul-04 04:33N 40°28' W 074°03'5 4.6
2015-Jul-04 03:33N 40°27' W 073°57'6 5.8
2015-Jul-04 02:33N 40°25' W 073°50'6 6.3
2015-Jul-04 01:33N 40°28' W 073°57'4 4.5
2015-Jul-04 00:33N 40°27' W 074°03'0 0.1
2015-Jul-03 23:32N 40°27' W 074°03'7 6.4
2015-Jul-03 22:25N 40°26' W 073°54'2 2.4
2015-Jul-03 21:33N 40°26' W 073°51'7 6.5
2015-Jul-03 20:32N 40°29' W 073°59'3 3.4
2015-Jul-03 19:33N 40°27' W 074°03'1 0.8
2015-Jul-03 18:33N 40°28' W 074°03'1 0.6
2015-Jul-03 17:33N 40°29' W 074°02'10 5.0
2015-Jul-03 15:33N 40°25' W 073°50'8 6.9
2015-Jul-03 14:20N 40°29' W 073°59'3 3.9
2015-Jul-03 13:29N 40°27' W 074°03'10 5.3
2015-Jul-03 11:30N 40°24' W 073°50'6 5.8
2015-Jul-03 10:33N 40°27' W 073°56'4 4.5
2015-Jul-03 09:33N 40°29' W 074°01'2 1.9
2015-Jul-03 08:33N 40°27' W 074°03'2 2.4
2015-Jul-03 07:33N 40°29' W 074°01'9 6.3
2015-Jul-03 06:04N 40°23' W 073°51'3 5.0
2015-Jul-03 05:33N 40°26' W 073°51'7 7.6
2015-Jul-03 04:33N 40°29' W 074°01'3 2.6
2015-Jul-03 03:32N 40°27' W 074°03'5 4.9
2015-Jul-03 02:33N 40°28' W 073°57'5 5.2
2015-Jul-03 01:30N 40°25' W 073°50'7 6.9
2015-Jul-03 00:33N 40°28' W 073°58'4 4.0
2015-Jul-02 23:33N 40°27' W 074°03'3 2.9
2015-Jul-02 22:33N 40°29' W 074°00'9 8.8
2015-Jul-02 21:31N 40°23' W 073°51'5 4.7
2015-Jul-02 20:33N 40°27' W 073°55'6 5.6
2015-Jul-02 19:33N 40°29' W 074°02'2 1.7
2015-Jul-02 18:33N 40°27' W 074°03'10 4.9
2015-Jul-02 16:33N 40°23' W 073°51'6 5.4
2015-Jul-02 15:23N 40°28' W 073°57'5 4.6
2015-Jul-02 14:23N 40°27' W 074°03'1 0.8
2015-Jul-02 13:24N 40°28' W 074°03'10 5.5
2015-Jul-02 11:33N 40°25' W 073°50'6 6.0
2015-Jul-02 10:33N 40°28' W 073°57'4 4.2
2015-Jul-02 09:33N 40°28' W 074°03'1 0.7
2015-Jul-02 08:29N 40°27' W 074°03'10 4.9
2015-Jul-02 06:27N 40°23' W 073°52'4 4.9
2015-Jul-02 05:33N 40°27' W 073°54'7 6.8
2015-Jul-02 04:31N 40°28' W 074°03'1 1.5
2015-Jul-02 03:31N 40°29' W 074°01'9 4.5
2015-Jul-02 01:33N 40°26' W 073°50'7 6.5
2015-Jul-02 00:26N 40°29' W 073°59'3 3.9
2015-Jul-01 23:33N 40°27' W 074°03'2 1.7
2015-Jul-01 22:26N 40°29' W 074°01'9 7.9
2015-Jul-01 21:19N 40°24' W 073°51'1 1.5
2015-Jul-01 20:33N 40°25' W 073°51'7 6.6
2015-Jul-01 19:27N 40°29' W 073°59'3 3.7
2015-Jul-01 18:33N 40°27' W 074°03'1 0.9
2015-Jul-01 17:33N 40°28' W 074°03'10 4.7
2015-Jul-01 15:30N 40°25' W 073°51'8 7.4
2015-Jul-01 14:28N 40°29' W 073°59'3 3.6
2015-Jul-01 13:33N 40°27' W 074°03'3 2.8
2015-Jul-01 12:29N 40°29' W 074°00'9 6.2
2015-Jul-01 11:04N 40°24' W 073°50'3 5.8
2015-Jul-01 10:32N 40°26' W 073°53'6 6.0
2015-Jul-01 09:33N 40°29' W 073°60'3 2.7
2015-Jul-01 08:27N 40°27' W 074°03'2 2.4
2015-Jul-01 07:30N 40°29' W 074°01'7 6.9
2015-Jul-01 06:32N 40°26' W 073°53'2 1.9
2015-Jul-01 05:26N 40°25' W 073°51'5 5.9
2015-Jul-01 04:33N 40°27' W 073°57'5 4.7
2015-Jul-01 03:33N 40°28' W 074°03'2 1.7
2015-Jul-01 02:33N 40°29' W 074°01'5 5.0
2015-Jul-01 01:33N 40°27' W 073°55'6 5.1
2015-Jul-01 00:28N 40°23' W 073°51'3 3.3
2015-Jun-30 23:31N 40°26' W 073°51'3 2.2
2015-Jun-30 22:17N 40°23' W 073°52'3 3.5
2015-Jun-30 21:30N 40°26' W 073°51'5 5.4
2015-Jun-30 20:32N 40°28' W 073°57'4 3.7
2015-Jun-30 19:33N 40°29' W 074°01'2 1.8
2015-Jun-30 18:33N 40°27' W 074°03'5 4.1
2015-Jun-30 17:25N 40°28' W 073°57'6 6.5
2015-Jun-30 16:33N 40°25' W 073°51'4 3.8
2015-Jun-30 15:33N 40°27' W 073°55'6 6.2
2015-Jun-30 14:33N 40°28' W 074°03'1 0.8
2015-Jun-30 13:33N 40°28' W 074°02'7 6.6
2015-Jun-30 12:33N 40°26' W 073°54'1 1.3
2015-Jun-30 11:33N 40°26' W 073°52'6 6.5
2015-Jun-30 10:33N 40°29' W 074°00'3 3.0
2015-Jun-30 09:33N 40°27' W 074°03'3 3.1
2015-Jun-30 08:33N 40°29' W 074°00'8 7.8
2015-Jun-30 07:33N 40°26' W 073°51'1 1.3
2015-Jun-30 06:33N 40°26' W 073°52'6 6.3
2015-Jun-30 05:33N 40°29' W 073°60'3 3.1
2015-Jun-30 04:33N 40°27' W 074°03'3 3.3
2015-Jun-30 03:33N 40°29' W 073°60'9 7.7
2015-Jun-30 02:26N 40°23' W 073°52'4 4.8
2015-Jun-30 01:33N 40°27' W 073°54'7 5.6
2015-Jun-30 00:23N 40°27' W 074°03'0 0.5
2015-Jun-29 23:32N 40°28' W 074°03'4 3.6
2015-Jun-29 22:29N 40°28' W 073°58'7 6.8
2015-Jun-29 21:25N 40°24' W 073°50'4 4.7
2015-Jun-29 20:32N 40°27' W 073°54'5 5.1
2015-Jun-29 19:33N 40°29' W 073°60'3 2.8
2015-Jun-29 18:33N 40°27' W 074°03'2 2.2
2015-Jun-29 17:32N 40°29' W 074°01'9 4.5
2015-Jun-29 15:33N 40°25' W 073°50'8 7.9
2015-Jun-29 14:33N 40°29' W 073°59'3 3.3
2015-Jun-29 13:33N 40°27' W 074°03'9 3.8
2015-Jun-29 11:05N 40°26' W 073°51'9 5.3
2015-Jun-29 09:20N 40°28' W 074°03'0 0.0
2015-Jun-29 08:33N 40°28' W 074°03'6 4.3
2015-Jun-29 07:12N 40°27' W 073°55'5 4.4
2015-Jun-29 06:09N 40°24' W 073°50'1 2.1
2015-Jun-29 05:33N 40°26' W 073°50'7 6.8
2015-Jun-29 04:31N 40°29' W 073°59'4 3.8
2015-Jun-29 03:32N 40°27' W 074°03'10 4.6
2015-Jun-29 01:18N 40°23' W 073°51'4 4.6
2015-Jun-29 00:32N 40°26' W 073°53'7 6.8
2015-Jun-28 23:33N 40°29' W 074°01'1 1.4
2015-Jun-28 22:32N 40°28' W 074°02'8 5.9
2015-Jun-28 21:14N 40°26' W 073°52'2 2.4
2015-Jun-28 20:26N 40°25' W 073°51'5 5.5
2015-Jun-28 19:33N 40°27' W 073°56'4 4.2
2015-Jun-28 18:33N 40°29' W 074°01'2 1.9
2015-Jun-28 17:33N 40°27' W 074°03'1 0.9
2015-Jun-28 16:33N 40°28' W 074°03'1 0.7
2015-Jun-28 15:32N 40°27' W 074°03'4 4.6
2015-Jun-28 14:33N 40°28' W 073°57'5 0.9
2015-Jun-28 09:20N 40°27' W 074°03'0 0.0
2015-Jun-28 08:28N 40°27' W 074°03'0 0.0
2015-Jun-28 07:24N 40°27' W 074°03'0 0.0
2015-Jun-28 04:09N 40°27' W 074°03'0 0.0
2015-Jun-28 03:33N 40°27' W 074°03'0 0.0
2015-Jun-28 02:32N 40°27' W 074°03'0 0.0
2015-Jun-28 01:30N 40°27' W 074°03'0 0.0
2015-Jun-28 00:23N 40°27' W 074°03'0 0.0
2015-Jun-27 23:31N 40°27' W 074°03'0 0.0
2015-Jun-27 22:33N 40°27' W 074°03'1 0.8
2015-Jun-27 21:32N 40°28' W 074°02'5 5.2
2015-Jun-27 20:31N 40°27' W 073°55'5 4.9
2015-Jun-27 19:33N 40°24' W 073°51'5 4.9
2015-Jun-27 18:32N 40°27' W 073°56'4 4.3
2015-Jun-27 17:31N 40°29' W 074°01'2 2.3
2015-Jun-27 16:33N 40°27' W 074°03'5 4.9
2015-Jun-27 15:33N 40°28' W 073°57'5 5.4
2015-Jun-27 14:33N 40°25' W 073°50'7 6.7
2015-Jun-27 13:33N 40°28' W 073°58'4 3.8
2015-Jun-27 12:32N 40°27' W 074°03'1 1.5
2015-Jun-27 11:33N 40°29' W 074°02'7 6.8
2015-Jun-27 10:33N 40°26' W 073°54'2 2.0
2015-Jun-27 09:33N 40°26' W 073°51'7 6.5
2015-Jun-27 08:32N 40°29' W 073°59'3 2.4
2015-Jun-27 07:07N 40°27' W 074°03'4 7.2
2015-Jun-27 06:32N 40°32' W 074°02'8 8.2
2015-Jun-27 05:33N 40°39' W 074°07'4 3.7
2015-Jun-27 04:33N 40°42' W 074°09'0 0.0
2015-Jun-27 03:33N 40°42' W 074°09'0 0.0
2015-Jun-27 02:31N 40°42' W 074°09'0 0.0
2015-Jun-27 01:33N 40°42' W 074°09'4 3.6
2015-Jun-27 00:33N 40°39' W 074°07'1 0.5
2015-Jun-26 23:33N 40°39' W 074°07'0 0.0
2015-Jun-26 22:33N 40°39' W 074°07'0 0.0
2015-Jun-26 21:33N 40°39' W 074°07'0 0.0
2015-Jun-26 20:33N 40°39' W 074°07'0 0.0
2015-Jun-26 19:33N 40°39' W 074°07'1 0.6
2015-Jun-26 18:33N 40°39' W 074°07'0 0.0
2015-Jun-26 17:33N 40°39' W 074°07'0 0.0
2015-Jun-26 16:31N 40°39' W 074°07'0 0.0
2015-Jun-26 15:31N 40°38' W 074°07'0 0.0
2015-Jun-26 14:33N 40°39' W 074°07'0 0.0
2015-Jun-26 13:33N 40°39' W 074°07'0 0.0
2015-Jun-26 12:32N 40°39' W 074°07'0 0.0
2015-Jun-26 11:33N 40°39' W 074°07'0 0.0
2015-Jun-26 10:33N 40°39' W 074°07'0 0.0
2015-Jun-26 09:33N 40°39' W 074°07'0 0.0
2015-Jun-26 08:32N 40°39' W 074°07'0 0.0
2015-Jun-26 07:22N 40°39' W 074°07'0 0.0
2015-Jun-26 06:28N 40°38' W 074°07'0 0.0
2015-Jun-26 05:32N 40°39' W 074°07'0 0.0
2015-Jun-26 04:31N 40°39' W 074°07'0 0.0
2015-Jun-26 03:33N 40°39' W 074°07'0 0.0
2015-Jun-26 02:26N 40°39' W 074°07'0 0.0
2015-Jun-26 01:28N 40°39' W 074°07'0 0.0
2015-Jun-26 00:33N 40°39' W 074°07'0 0.0
2015-Jun-25 23:33N 40°39' W 074°07'0 0.0
2015-Jun-25 22:32N 40°39' W 074°07'0 0.0
2015-Jun-25 21:33N 40°39' W 074°07'0 0.0
2015-Jun-25 20:33N 40°39' W 074°07'0 0.0
2015-Jun-25 19:32N 40°39' W 074°07'  

Dump ship's entire track history